ADDS METAR Data INFO
IDs: Format: Raw Decoded Include TAF

Data at: 0430 UTC 28 Jul 2017

KBPG 280415Z AUTO 13005KT 10SM CLR 28/12 A3004 RMK AO2 T02820120
KBPG 280355Z AUTO 14005KT 10SM CLR 29/12 A3003 RMK AO2 T02900120
KBPG 280335Z AUTO 15005KT 10SM CLR 30/12 A3003 RMK AO2 T02990118
KBPG 280315Z AUTO 15006KT 10SM CLR 31/12 A3002 RMK AO2 T03050117
KBPG 280255Z AUTO 15007KT 10SM CLR 31/12 A3000 RMK AO2 T03110115
KBPG 280235Z AUTO 15009KT 10SM CLR 32/12 A2999 RMK AO2 T03180116
KBPG 280215Z AUTO 15010KT 10SM CLR 32/12 A2998 RMK AO2 T03220117
KBPG 280155Z AUTO 15011G16KT 10SM CLR 33/12 A2997 RMK AO2 T03290115
KBPG 280130Z AUTO 15013G17KT 10SM CLR 34/12 A2997 RMK AO2 T03380115
KBPG 280115Z AUTO 15013G17KT 10SM CLR 34/12 A2996 RMK AO2 T03420116
KBPG 280055Z AUTO 14015KT 10SM SCT110 35/12 A2996 RMK AO2 T03500119
KBPG 280035Z AUTO 14012KT 10SM SCT095 36/12 A2997 RMK AO2 T03550120
KBPG 280015Z AUTO 16011KT 10SM BKN095 36/12 A2997 RMK AO2 T03570118
KBPG 272355Z AUTO 15011G16KT 10SM BKN095 OVC120 37/12 A2997 RMK AO2 T03710122 10374 20334
KBPG 272335Z AUTO 14012KT 10SM BKN095 37/12 A2997 RMK AO2 T03660121
KBPG 272315Z AUTO 12015G20KT 10SM BKN095 37/12 A2997 RMK AO2 T03680123
KBPG 272255Z AUTO 11013G18KT 10SM SCT095 37/12 A2998 RMK AO2 T03680120
KBPG 272235Z AUTO 15014G17KT 7SM SCT095 37/12 A2998 RMK AO2 T03690124
KBPG 272215Z AUTO 13013G19KT 10SM SCT095 37/12 A2999 RMK AO2 T03670120
KBPG 272155Z AUTO 16014G18KT 10SM SCT095 37/12 A3000 RMK AO2 T03700118
KBPG 272135Z AUTO 16010KT 140V200 10SM CLR 37/12 A3001 RMK AO2 T03720118
KBPG 272115Z AUTO 13011G16KT 10SM SCT090 37/12 A3002 RMK AO2 T03660121
KBPG 272055Z AUTO 14006G17KT 10SM SCT090 37/12 A3003 RMK AO2 T03660121
KBPG 272035Z AUTO 21006KT 10SM CLR 36/12 A3004 RMK AO2 T03590122
KBPG 272015Z AUTO 15010G15KT 10SM CLR 35/13 A3005 RMK AO2 T03490125
KBPG 271955Z AUTO 19006KT 10SM SCT090 35/12 A3006 RMK AO2 T03510123
KBPG 271935Z AUTO 18009KT 10SM SCT090 35/12 A3007 RMK AO2 T03500123
KBPG 271915Z AUTO 20009G15KT 10SM CLR 35/12 A3008 RMK AO2 T03470124
KBPG 271855Z AUTO 22005KT 10SM CLR 35/12 A3009 RMK AO2 T03500121
KBPG 271835Z AUTO 15008KT 10SM CLR 34/12 A3009 RMK AO2 T03410123
KBPG 271815Z AUTO 19009KT 10SM CLR 34/13 A3010 RMK AO2 T03420134
KBPG 271755Z AUTO 17010G14KT 10SM CLR 34/13 A3011 RMK AO2 T03380129 10338 20225
KBPG 271735Z AUTO 16007KT 10SM CLR 33/14 A3011 RMK AO2 T03320137
KBPG 271715Z AUTO 15008G15KT 10SM CLR 33/14 A3012 RMK AO2 T03310138
KBPG 271655Z AUTO 15010G14KT 10SM CLR 33/14 A3012 RMK AO2 T03260138
KBPG 271635Z AUTO 14010G16KT 10SM CLR 32/14 A3012 RMK AO2 T03200138
KBPG 271615Z AUTO 17009G16KT 10SM CLR 31/14 A3012 RMK AO2 T03100144
KBPG 271555Z AUTO 15012KT 10SM CLR 30/15 A3013 RMK AO2 T03040146
KBPG 271535Z AUTO 17011G19KT 10SM CLR 30/16 A3013 RMK AO2 T02980157
KBPG 271515Z AUTO 17012KT 10SM CLR 29/16 A3013 RMK AO2 T02860160
KBPG 271455Z AUTO 17009KT 10SM CLR 28/17 A3012 RMK AO2 T02790170
KBPG 271435Z AUTO 17008KT 10SM CLR 27/17 A3012 RMK AO2 T02680170
KBPG 271415Z AUTO 17010KT 10SM CLR 26/17 A3012 RMK AO2 T02610171
KBPG 271355Z AUTO 16012KT 10SM CLR 25/17 A3011 RMK AO2 T02530170
KBPG 271335Z AUTO 16013KT 10SM CLR 25/17 A3011 RMK AO2 T02470168
KBPG 271315Z AUTO 15007KT 10SM CLR 24/17 A3011 RMK AO2 T02390165
KBPG 271255Z AUTO 16006KT 10SM CLR 24/17 A3012 RMK AO2 T02350165
KBPG 271235Z AUTO 16006KT 10SM CLR 23/17 A3011 RMK AO2 T02290165
KBPG 271215Z AUTO 17006KT 10SM CLR 23/17 A3011 RMK AO2 T02250165
KBPG 271155Z AUTO 17007KT 10SM CLR 23/16 A3011 RMK AO2 T02300164 10276 20230
KBPG 271135Z AUTO 17008KT 10SM CLR 23/17 A3010 RMK AO2 T02330165
KBPG 271115Z AUTO 16009KT 10SM CLR 24/17 A3009 RMK AO2 T02370165
KBPG 271055Z AUTO 17009KT 10SM CLR 24/17 A3010 RMK AO2 T02400165
KBPG 271035Z AUTO 17009KT 10SM CLR 24/17 A3009 RMK AO2 T02430165
KBPG 271015Z AUTO 17011KT 10SM CLR 25/17 A3009 RMK AO2 T02450165
KBPG 270955Z AUTO 17012KT 10SM CLR 25/17 A3008 RMK AO2 T02480165
KBPG 270935Z AUTO 17014G19KT 10SM CLR 25/17 A3007 RMK AO2 LTG DSNT NW T02520166
KBPG 270915Z AUTO 17015KT 10SM CLR 26/17 A3007 RMK AO2 T02550167
KBPG 270855Z AUTO 17013KT 10SM CLR 26/17 A3008 RMK AO2 T02580165
KBPG 270835Z AUTO 17017G22KT 10SM CLR 26/16 A3007 RMK AO2 T02610162
KBPG 270815Z AUTO 16013KT 10SM CLR 27/16 A3007 RMK AO2 T02650156
KBPG 270755Z AUTO 16015KT 10SM CLR 27/15 A3007 RMK AO2 T02650149
KBPG 270735Z AUTO 15008KT 10SM CLR 25/14 A3008 RMK AO2 T02510140
KBPG 270715Z AUTO 15006KT 10SM CLR 25/14 A3008 RMK AO2 T02460138
KBPG 270655Z AUTO 15006KT 10SM CLR 25/14 A3008 RMK AO2 T02510140
KBPG 270635Z AUTO 18005KT 10SM CLR 26/14 A3008 RMK AO2 T02570138
KBPG 270615Z AUTO 17005KT 10SM CLR 27/14 A3008 RMK AO2 T02690139
KBPG 270555Z AUTO 16007KT 10SM CLR 28/14 A3008 RMK AO2 T02770140 10358 20277 403680238
KBPG 270535Z AUTO 15008KT 10SM CLR 28/14 A3008 RMK AO2 T02830138
KBPG 270515Z AUTO 16008KT 10SM CLR 29/14 A3008 RMK AO2 T02850137
KBPG 270455Z AUTO 15009KT 10SM CLR 29/14 A3008 RMK AO2 T02900135
KBPG 270435Z AUTO 15010KT 10SM CLR 29/14 A3007 RMK AO2 T02930135
KBPG 270415Z AUTO 15010KT 10SM CLR 30/13 A3007 RMK AO2 T02950132
KBPG 270355Z AUTO 15010KT 10SM CLR 30/13 A3007 RMK AO2 T02970130
KBPG 270335Z AUTO 15010KT 10SM CLR 30/13 A3006 RMK AO2 T03020130
KBPG 270315Z AUTO 15009KT 10SM CLR 31/13 A3006 RMK AO2 T03070128
KBPG 270255Z AUTO 14010KT 10SM CLR 31/13 A3005 RMK AO2 T03080126
KBPG 270235Z AUTO 14005KT 10SM CLR 30/13 A3005 RMK AO2 T03040126
KBPG 270215Z AUTO 15005KT 10SM CLR 31/12 A3005 RMK AO2 T03130124
KBPG 270155Z AUTO 17008KT 10SM CLR 32/12 A3004 RMK AO2 T03240121
KBPG 270135Z AUTO 17008KT 10SM CLR 33/12 A3004 RMK AO2 T03330121
KBPG 270115Z AUTO 18010KT 10SM CLR 34/12 A3003 RMK AO2 T03410121
KBPG 270055Z AUTO 18010KT 10SM CLR 35/12 A3003 RMK AO2 T03470120
KBPG 270035Z AUTO 17013KT 10SM CLR 35/12 A3002 RMK AO2 T03520121
KBPG 270015Z AUTO 16014KT 10SM CLR 36/12 A3002 RMK AO2 T03560121
KBPG 262355Z AUTO 18011KT 10SM CLR 36/12 A3002 RMK AO2 T03580120 10368 20332
KBPG 262335Z AUTO 17014G18KT 10SM CLR 36/12 A3002 RMK AO2 T03610121
KBPG 262315Z AUTO 18012G17KT 10SM CLR 36/12 A3002 RMK AO2 T03630120
KBPG 262255Z AUTO 18015G19KT 10SM CLR 36/12 A3002 RMK AO2 T03620120
KBPG 262235Z AUTO 14012G17KT 10SM CLR 36/12 A3002 RMK AO2 T03630118
KBPG 262215Z AUTO 18010G15KT 10SM CLR 36/12 A3003 RMK AO2 T03640124
KBPG 262155Z AUTO 16014G23KT 10SM CLR 36/13 A3003 RMK AO2 T03640130
KBPG 262135Z AUTO 19016G20KT 10SM CLR 36/13 A3005 RMK AO2 T03610127
KBPG 262115Z AUTO 16012G19KT 10SM CLR 36/13 A3005 RMK AO2 T03590129
KBPG 262055Z AUTO 17009G16KT 7SM CLR 36/13 A3005 RMK AO2 T03580129
KBPG 262035Z AUTO 17014G20KT 10SM CLR 36/13 A3006 RMK AO2 T03590134
KBPG 262015Z AUTO 17015G19KT 10SM CLR 36/14 A3007 RMK AO2 T03610139
KBPG 261955Z AUTO 16011G21KT 10SM CLR 36/14 A3009 RMK AO2 T03560136
KBPG 261935Z AUTO 17017G22KT 10SM CLR 36/15 A3009 RMK AO2 T03550145
KBPG 261915Z AUTO 16014G20KT 10SM CLR 35/14 A3009 RMK AO2 T03480144
KBPG 261855Z AUTO 16012G19KT 10SM CLR 35/15 A3010 RMK AO2 T03480149
KBPG 261835Z AUTO 17013G18KT 10SM CLR 34/15 A3011 RMK AO2 T03420153
KBPG 261815Z AUTO 18012G18KT 10SM CLR 34/16 A3012 RMK AO2 T03370159
KBPG 261755Z AUTO 18014G19KT 10SM CLR 33/17 A3012 RMK AO2 T03330165 10335 20238
KBPG 261735Z AUTO 18013G18KT 10SM CLR 33/17 A3012 RMK AO2 T03290168
KBPG 261715Z AUTO 19014G20KT 10SM CLR 32/17 A3013 RMK AO2 T03230170
KBPG 261655Z AUTO 17016G21KT 10SM CLR 32/17 A3014 RMK AO2 T03170166
KBPG 261635Z AUTO 17016G19KT 10SM CLR 32/17 A3014 RMK AO2 T03200171